Cary, Mississippi
Current Conditions -  °F | °C
As of 8:53 AM on Wednesday 22 Oct 2014 (Local Time) from KTVR Reporting Station
Clear Clear  
Wind Chill: 61°   Ceiling: Unl
Heat Index: 61°   Visibility: 10mi
Dew Point: 54°   Wind: 5mph
Humidity: 78%   Direction: 60°ENE
Pressure: 30.16"   Gusts: NA
Location:  32.81°N, 90.93°W
Report Text: KTVR 221353Z AUTO 06004KT 10SM CLR 16/12 A3016 RMK AO2 SLP221 T01610122
Loading
Personal Weather Stations






























Interactive Weather Map
Tropical Storm Tracking
New forecast layout! Learn more

10-Day Weather Forecast

Advertisements
Track Severe Weather on mobile